Time;durP1;ratioP1;P1;durP2;ratioP2;P2;SDS_P1;SDS_P2;PMS_P1;PMS_P2;Temp;Humidity;BMP_temperature;BMP_pressure;BME280_temperature;BME280_humidity;BME280_pressure;Samples;Min_cycle;Max_cycle;Signal;HPM_P1;HPM_P2
2022/12/07 00:01:08;;;;;;;6.40;4.43;;;;;;;;;;5093583;28;20028;-58
2022/12/07 00:03:34;;;;;;;5.60;3.75;;;;;;;;;;5093767;28;20099;-59
2022/12/07 00:06:01;;;;;;;6.38;3.97;;;;;;;;;;5093048;28;20028;-59
2022/12/07 00:08:27;;;;;;;5.55;4.15;;;;;;;;;;5093441;28;20020;-59
2022/12/07 00:10:52;;;;;;;5.50;4.15;;;;;;;;;;5093073;28;20028;-59
2022/12/07 00:13:18;;;;;;;6.45;3.92;;;;;;;;;;5093202;28;20027;-59
2022/12/07 00:15:44;;;;;;;5.75;4.30;;;;;;;;;;5093027;28;20157;-58
2022/12/07 00:18:10;;;;;;;7.03;4.32;;;;;;;;;;5092802;28;20063;-59
2022/12/07 00:20:35;;;;;;;5.00;4.22;;;;;;;;;;5092078;28;20112;-59
2022/12/07 00:23:01;;;;;;;4.85;4.10;;;;;;;;;;5093387;28;20020;-59
2022/12/07 00:25:26;;;;;;;6.65;4.10;;;;;;;;;;5092984;28;20028;-59
2022/12/07 00:27:53;;;;;;;5.15;4.10;;;;;;;;;;5093129;28;20043;-59
2022/12/07 00:30:19;;;;;;;6.93;4.35;;;;;;;;;;5092683;28;20031;-59
2022/12/07 00:32:44;;;;;;;7.30;4.22;;;;;;;;;;5092923;28;20078;-59
2022/12/07 00:35:10;;;;;;;5.97;4.00;;;;;;;;;;5093141;28;20030;-59
2022/12/07 00:37:35;;;;;;;6.35;4.32;;;;;;;;;;5092699;28;20533;-59
2022/12/07 00:40:01;;;;;;;5.57;3.80;;;;;;;;;;5092467;28;20047;-60
2022/12/07 00:42:26;;;;;;;5.72;3.75;;;;;;;;;;5092705;28;20028;-59
2022/12/07 00:44:51;;;;;;;5.78;4.00;;;;;;;;;;5092651;28;20049;-60
2022/12/07 00:47:17;;;;;;;5.78;4.10;;;;;;;;;;5092355;28;20051;-59
2022/12/07 00:49:42;;;;;;;4.93;3.50;;;;;;;;;;5092561;28;20052;-59
2022/12/07 00:52:08;;;;;;;5.65;4.00;;;;;;;;;;5092724;28;20035;-59
2022/12/07 00:54:33;;;;;;;7.25;3.65;;;;;;;;;;5092544;28;20024;-59
2022/12/07 00:56:59;;;;;;;4.55;3.65;;;;;;;;;;5092644;28;20056;-59
2022/12/07 00:59:24;;;;;;;4.88;3.67;;;;;;;;;;5092226;28;20027;-60
2022/12/07 01:01:50;;;;;;;4.93;4.07;;;;;;;;;;5092308;28;20034;-59
2022/12/07 01:04:15;;;;;;;5.25;4.00;;;;;;;;;;5104447;28;20038;-59
2022/12/07 01:06:41;;;;;;;5.18;3.90;;;;;;;;;;5112443;28;20034;-59
2022/12/07 01:09:06;;;;;;;5.50;3.97;;;;;;;;;;5111596;28;20490;-59
2022/12/07 01:11:32;;;;;;;4.65;3.80;;;;;;;;;;5112648;28;20051;-59
2022/12/07 01:13:59;;;;;;;5.13;3.53;;;;;;;;;;5112637;28;20123;-59
2022/12/07 01:16:27;;;;;;;5.65;3.70;;;;;;;;;;5111697;27;20036;-59
2022/12/07 01:18:54;;;;;;;5.57;3.90;;;;;;;;;;5112882;28;20059;-59
2022/12/07 01:21:22;;;;;;;5.72;4.00;;;;;;;;;;5112535;28;20024;-60
2022/12/07 01:23:49;;;;;;;5.85;4.15;;;;;;;;;;5112930;28;20088;-59
2022/12/07 01:26:24;;;;;;;5.18;3.65;;;;;;;;;;5112720;28;20032;-59
2022/12/07 01:28:50;;;;;;;5.25;3.83;;;;;;;;;;5112580;28;20080;-58
2022/12/07 01:31:18;;;;;;;4.43;3.45;;;;;;;;;;5111767;28;20024;-59
2022/12/07 01:33:46;;;;;;;4.88;3.63;;;;;;;;;;5112440;28;20543;-59
2022/12/07 01:36:26;;;;;;;5.95;3.70;;;;;;;;;;5112655;28;20039;-59
2022/12/07 01:38:56;;;;;;;5.72;3.60;;;;;;;;;;5112444;28;20119;-59
2022/12/07 01:41:23;;;;;;;4.20;3.80;;;;;;;;;;5112314;28;20038;-59
2022/12/07 01:44:08;;;;;;;4.53;3.88;;;;;;;;;;5112478;28;20103;-59
2022/12/07 01:46:34;;;;;;;4.72;3.50;;;;;;;;;;5111967;28;20056;-59
2022/12/07 01:49:01;;;;;;;5.00;3.60;;;;;;;;;;5111040;28;20024;-59
2022/12/07 01:51:27;;;;;;;5.05;3.88;;;;;;;;;;5112182;28;20024;-59
2022/12/07 01:53:54;;;;;;;5.38;3.80;;;;;;;;;;5112286;28;20479;-59
2022/12/07 01:56:24;;;;;;;5.50;3.65;;;;;;;;;;5112167;28;20031;-59
2022/12/07 01:58:51;;;;;;;5.45;3.88;;;;;;;;;;5112218;28;20051;-59
2022/12/07 02:01:17;;;;;;;4.82;3.78;;;;;;;;;;5112227;28;20031;-59
2022/12/07 02:03:44;;;;;;;5.57;3.83;;;;;;;;;;5113093;28;20020;-59
2022/12/07 02:06:14;;;;;;;4.78;3.80;;;;;;;;;;5112309;28;20023;-59
2022/12/07 02:08:41;;;;;;;6.27;3.53;;;;;;;;;;5112421;28;20028;-60
2022/12/07 02:11:07;;;;;;;4.45;3.50;;;;;;;;;;5112003;28;20028;-59
2022/12/07 02:13:35;;;;;;;4.70;3.40;;;;;;;;;;5112393;28;20027;-59
2022/12/07 02:16:06;;;;;;;6.10;3.42;;;;;;;;;;5112031;28;20103;-59
2022/12/07 02:18:35;;;;;;;4.97;3.42;;;;;;;;;;5112016;28;20019;-59
2022/12/07 02:21:31;;;;;;;6.15;3.65;;;;;;;;;;5111832;28;20684;-59
2022/12/07 02:24:12;;;;;;;6.13;3.42;;;;;;;;;;5112237;28;20501;-59
2022/12/07 02:26:46;;;;;;;7.43;3.95;;;;;;;;;;5112054;28;20023;-59
2022/12/07 02:29:25;;;;;;;4.70;3.65;;;;;;;;;;5111906;28;20031;-59
2022/12/07 02:32:02;;;;;;;4.82;3.35;;;;;;;;;;5112164;28;20520;-59
2022/12/07 02:34:44;;;;;;;5.40;3.30;;;;;;;;;;5112097;28;20031;-59
2022/12/07 02:37:43;;;;;;;4.78;3.03;;;;;;;;;;5111839;28;20024;-59
2022/12/07 02:40:20;;;;;;;5.22;3.20;;;;;;;;;;5112034;28;20077;-59
2022/12/07 02:42:59;;;;;;;5.03;3.70;;;;;;;;;;5112101;28;20518;-59
2022/12/07 02:45:26;;;;;;;6.68;4.13;;;;;;;;;;5115418;28;20702;-59
2022/12/07 02:47:56;;;;;;;5.93;3.88;;;;;;;;;;5115240;28;20054;-59
2022/12/07 02:50:22;;;;;;;5.43;3.97;;;;;;;;;;5115678;28;20030;-58
2022/12/07 02:52:47;;;;;;;6.97;3.67;;;;;;;;;;5115344;28;20374;-59
2022/12/07 02:55:17;;;;;;;4.43;3.38;;;;;;;;;;5115544;28;20031;-59
2022/12/07 02:57:58;;;;;;;5.10;4.07;;;;;;;;;;5115638;28;20419;-58
2022/12/07 03:00:23;;;;;;;4.82;3.85;;;;;;;;;;5115102;28;20024;-59
2022/12/07 03:03:03;;;;;;;4.78;3.67;;;;;;;;;;5115265;28;20036;-59
2022/12/07 03:06:13;;;;;;;5.00;3.50;;;;;;;;;;5115134;28;20079;-59
2022/12/07 03:08:56;;;;;;;4.20;3.35;;;;;;;;;;5115374;28;20089;-59
2022/12/07 03:11:30;;;;;;;5.63;3.65;;;;;;;;;;5115114;28;20034;-59
2022/12/07 03:14:18;;;;;;;4.43;3.67;;;;;;;;;;5115233;28;20072;-59
2022/12/07 03:16:59;;;;;;;4.55;3.60;;;;;;;;;;5115209;28;20037;-59
2022/12/07 03:19:26;;;;;;;5.40;3.40;;;;;;;;;;5114878;28;20027;-59
2022/12/07 03:22:00;;;;;;;5.05;4.00;;;;;;;;;;5115042;28;20064;-59
2022/12/07 03:24:36;;;;;;;4.35;3.67;;;;;;;;;;5114748;28;20035;-59
2022/12/07 03:27:09;;;;;;;4.35;3.35;;;;;;;;;;5114882;28;20043;-59
2022/12/07 03:29:40;;;;;;;5.70;3.60;;;;;;;;;;5114643;28;20055;-59
2022/12/07 03:32:14;;;;;;;5.20;3.85;;;;;;;;;;5114532;28;20103;-59
2022/12/07 03:34:45;;;;;;;4.07;3.40;;;;;;;;;;5114564;27;20016;-60
2022/12/07 03:37:26;;;;;;;5.63;4.13;;;;;;;;;;5114425;28;20016;-59
2022/12/07 03:40:02;;;;;;;4.10;3.10;;;;;;;;;;5114550;28;20540;-59
2022/12/07 03:42:28;;;;;;;5.32;3.65;;;;;;;;;;5114320;28;20114;-59
2022/12/07 03:44:54;;;;;;;5.82;3.38;;;;;;;;;;5114384;28;20023;-59
2022/12/07 03:47:32;;;;;;;5.53;3.47;;;;;;;;;;5113976;28;20052;-59
2022/12/07 03:50:12;;;;;;;5.97;3.35;;;;;;;;;;5114170;28;20467;-59
2022/12/07 03:52:41;;;;;;;5.40;3.40;;;;;;;;;;5114408;28;20023;-59
2022/12/07 03:55:19;;;;;;;5.65;3.45;;;;;;;;;;5114424;28;20030;-59
2022/12/07 03:57:48;;;;;;;4.32;3.42;;;;;;;;;;5114389;28;20031;-59
2022/12/07 04:00:14;;;;;;;4.40;3.60;;;;;;;;;;5114220;28;20023;-59
2022/12/07 04:02:41;;;;;;;4.32;3.28;;;;;;;;;;5113834;28;20027;-59
2022/12/07 04:05:07;;;;;;;5.22;3.75;;;;;;;;;;5113891;28;20428;-59
2022/12/07 04:07:33;;;;;;;4.40;3.40;;;;;;;;;;5113731;28;20533;-59
2022/12/07 04:09:59;;;;;;;4.35;3.10;;;;;;;;;;5113868;28;20024;-59
2022/12/07 04:12:24;;;;;;;4.25;3.30;;;;;;;;;;5113710;28;20036;-59
2022/12/07 04:14:50;;;;;;;5.18;3.38;;;;;;;;;;5112827;28;20030;-59
2022/12/07 04:17:15;;;;;;;4.07;3.45;;;;;;;;;;5113740;28;20024;-59
2022/12/07 04:19:41;;;;;;;3.88;3.10;;;;;;;;;;5113984;27;20111;-59
2022/12/07 04:22:07;;;;;;;5.43;3.53;;;;;;;;;;5113890;28;20032;-59
2022/12/07 04:24:33;;;;;;;4.10;3.05;;;;;;;;;;5113854;28;20403;-59
2022/12/07 04:26:59;;;;;;;4.82;3.00;;;;;;;;;;5113368;28;20504;-59
2022/12/07 04:29:24;;;;;;;5.03;3.30;;;;;;;;;;5113823;28;20028;-59
2022/12/07 04:31:50;;;;;;;4.57;3.35;;;;;;;;;;5113664;28;20538;-59
2022/12/07 04:34:17;;;;;;;6.38;3.70;;;;;;;;;;5113697;28;20149;-59
2022/12/07 04:36:43;;;;;;;5.30;3.50;;;;;;;;;;5113321;28;20467;-59
2022/12/07 04:39:21;;;;;;;4.82;3.28;;;;;;;;;;5113323;28;20035;-59
2022/12/07 04:41:47;;;;;;;4.80;3.40;;;;;;;;;;5113286;28;20022;-59
2022/12/07 04:44:14;;;;;;;3.75;3.00;;;;;;;;;;5113152;28;20027;-60
2022/12/07 04:46:40;;;;;;;4.25;3.25;;;;;;;;;;5112985;28;20051;-60
2022/12/07 04:49:06;;;;;;;4.53;3.13;;;;;;;;;;5113358;28;20047;-59
2022/12/07 04:51:32;;;;;;;4.38;3.13;;;;;;;;;;5113111;28;20047;-59
2022/12/07 04:53:58;;;;;;;5.50;3.10;;;;;;;;;;5111829;28;20023;-59
2022/12/07 04:56:24;;;;;;;8.68;3.30;;;;;;;;;;5113210;28;20054;-59
2022/12/07 04:58:52;;;;;;;5.22;3.28;;;;;;;;;;5113222;28;20020;-59
2022/12/07 05:01:18;;;;;;;5.32;3.42;;;;;;;;;;5113096;28;20028;-59
2022/12/07 05:03:44;;;;;;;4.57;3.25;;;;;;;;;;5112904;28;20364;-59
2022/12/07 05:06:10;;;;;;;3.78;3.10;;;;;;;;;;5112321;27;20586;-59
2022/12/07 05:08:37;;;;;;;6.22;3.22;;;;;;;;;;5112759;28;20413;-59
2022/12/07 05:11:04;;;;;;;3.83;3.30;;;;;;;;;;5112641;28;20077;-59
2022/12/07 05:13:31;;;;;;;3.50;3.03;;;;;;;;;;5112622;28;20034;-59
2022/12/07 05:15:57;;;;;;;3.88;3.20;;;;;;;;;;5112561;28;20024;-59
2022/12/07 05:18:22;;;;;;;3.53;3.05;;;;;;;;;;5112886;28;20080;-59
2022/12/07 05:20:48;;;;;;;5.63;3.35;;;;;;;;;;5112722;28;20080;-59
2022/12/07 05:23:14;;;;;;;3.92;3.13;;;;;;;;;;5112721;28;20479;-59
2022/12/07 05:25:39;;;;;;;4.88;3.35;;;;;;;;;;5111501;28;20020;-59
2022/12/07 05:28:05;;;;;;;5.03;3.38;;;;;;;;;;5112332;28;20502;-59
2022/12/07 05:30:31;;;;;;;5.32;3.10;;;;;;;;;;5112664;28;20019;-59
2022/12/07 05:32:57;;;;;;;3.70;3.10;;;;;;;;;;5112384;28;20070;-59
2022/12/07 05:35:23;;;;;;;5.25;2.95;;;;;;;;;;5112459;28;20023;-59
2022/12/07 05:37:48;;;;;;;3.97;2.92;;;;;;;;;;5112608;28;20024;-59
2022/12/07 05:40:15;;;;;;;5.90;3.20;;;;;;;;;;5112380;28;20077;-59
2022/12/07 05:42:41;;;;;;;3.15;2.80;;;;;;;;;;5112341;28;20068;-58
2022/12/07 05:45:08;;;;;;;4.00;2.95;;;;;;;;;;5112335;28;20028;-59
2022/12/07 05:47:34;;;;;;;3.97;3.10;;;;;;;;;;5111915;28;20050;-60
2022/12/07 05:49:59;;;;;;;3.92;3.03;;;;;;;;;;5112301;28;20034;-59
2022/12/07 05:52:25;;;;;;;4.28;3.10;;;;;;;;;;5112376;28;20386;-59
2022/12/07 05:54:51;;;;;;;3.63;3.00;;;;;;;;;;5112539;28;20024;-59
2022/12/07 05:57:17;;;;;;;4.10;3.00;;;;;;;;;;5112296;28;20369;-58
2022/12/07 05:59:43;;;;;;;3.90;2.90;;;;;;;;;;5112470;28;20536;-59
2022/12/07 06:02:12;;;;;;;4.47;2.90;;;;;;;;;;5112318;28;20399;-59
2022/12/07 06:04:40;;;;;;;3.88;3.08;;;;;;;;;;5112066;28;20023;-59
2022/12/07 06:07:06;;;;;;;3.60;2.92;;;;;;;;;;5111937;28;20035;-59
2022/12/07 06:09:33;;;;;;;3.95;2.90;;;;;;;;;;5112236;28;20450;-59
2022/12/07 06:14:43;;;;;;;3.85;3.00;;;;;;;;;;5112138;28;20039;-59
2022/12/07 06:17:09;;;;;;;5.28;3.13;;;;;;;;;;5111815;28;20027;-59
2022/12/07 06:19:35;;;;;;;3.00;2.70;;;;;;;;;;5114195;28;20110;-59
2022/12/07 06:22:01;;;;;;;4.60;3.30;;;;;;;;;;5115792;28;20115;-59
2022/12/07 06:24:27;;;;;;;3.83;3.15;;;;;;;;;;5115876;28;20023;-59
2022/12/07 06:26:52;;;;;;;3.40;3.10;;;;;;;;;;5115894;28;20020;-59
2022/12/07 06:29:19;;;;;;;4.55;3.10;;;;;;;;;;5115659;28;20027;-59
2022/12/07 06:31:44;;;;;;;4.45;3.33;;;;;;;;;;5115644;28;20050;-59
2022/12/07 06:34:15;;;;;;;5.07;3.28;;;;;;;;;;5115539;28;20063;-58
2022/12/07 06:36:41;;;;;;;4.13;2.90;;;;;;;;;;5115873;28;20051;-59
2022/12/07 06:39:08;;;;;;;5.53;3.40;;;;;;;;;;5115602;28;20506;-59
2022/12/07 06:41:38;;;;;;;4.35;3.30;;;;;;;;;;5115445;28;20042;-59
2022/12/07 06:44:04;;;;;;;3.90;3.07;;;;;;;;;;5115557;28;20015;-58
2022/12/07 06:46:30;;;;;;;3.80;2.80;;;;;;;;;;5115220;28;20050;-59
2022/12/07 06:48:56;;;;;;;3.80;3.17;;;;;;;;;;5115639;28;20406;-59
2022/12/07 06:51:21;;;;;;;6.30;3.10;;;;;;;;;;5115568;28;20018;-59
2022/12/07 06:53:47;;;;;;;3.38;3.05;;;;;;;;;;5115215;28;20028;-59
2022/12/07 06:56:12;;;;;;;4.80;3.00;;;;;;;;;;5115380;28;20034;-59
2022/12/07 06:58:39;;;;;;;3.42;3.13;;;;;;;;;;5115135;27;20016;-59
2022/12/07 07:01:10;;;;;;;3.78;2.58;;;;;;;;;;5115157;28;20085;-59
2022/12/07 07:03:36;;;;;;;2.88;2.58;;;;;;;;;;5115398;28;20019;-59
2022/12/07 07:06:01;;;;;;;3.65;2.80;;;;;;;;;;5112551;28;20429;-59
2022/12/07 07:08:27;;;;;;;4.60;3.15;;;;;;;;;;5109132;28;20027;-59
2022/12/07 07:10:52;;;;;;;3.80;3.03;;;;;;;;;;5112552;27;20356;-59
2022/12/07 07:13:18;;;;;;;4.40;2.85;;;;;;;;;;5109356;28;20494;-59
2022/12/07 07:15:44;;;;;;;5.38;3.33;;;;;;;;;;5110334;27;20028;-59
2022/12/07 07:18:09;;;;;;;3.75;2.92;;;;;;;;;;5113696;27;20080;-59
2022/12/07 07:20:35;;;;;;;3.63;3.00;;;;;;;;;;5114921;28;20023;-59
2022/12/07 07:23:01;;;;;;;3.78;3.05;;;;;;;;;;5114979;28;20360;-59
2022/12/07 07:25:26;;;;;;;3.80;3.00;;;;;;;;;;5114858;28;20533;-58
2022/12/07 07:27:52;;;;;;;3.38;3.08;;;;;;;;;;5114718;28;20111;-59
2022/12/07 07:30:17;;;;;;;4.63;3.38;;;;;;;;;;5114101;27;20490;-59
2022/12/07 07:32:43;;;;;;;3.13;2.53;;;;;;;;;;5114761;28;20016;-59
2022/12/07 07:35:08;;;;;;;3.83;2.70;;;;;;;;;;5114412;28;20097;-58
2022/12/07 07:37:34;;;;;;;4.32;3.10;;;;;;;;;;5109586;28;20110;-60
2022/12/07 07:39:59;;;;;;;4.68;2.95;;;;;;;;;;5111315;28;20154;-58
2022/12/07 07:42:25;;;;;;;3.65;3.00;;;;;;;;;;5114136;28;20028;-60
2022/12/07 07:44:50;;;;;;;3.72;2.97;;;;;;;;;;5112939;28;20042;-59
2022/12/07 07:47:16;;;;;;;5.20;3.20;;;;;;;;;;5113489;28;20047;-59
2022/12/07 07:49:41;;;;;;;3.08;2.70;;;;;;;;;;5095418;27;20111;-59
2022/12/07 07:52:06;;;;;;;3.65;2.88;;;;;;;;;;5090886;28;20061;-59
2022/12/07 07:54:32;;;;;;;4.40;2.65;;;;;;;;;;5092597;28;20455;-59
2022/12/07 07:56:57;;;;;;;3.95;3.28;;;;;;;;;;5093842;28;20016;-60
2022/12/07 07:59:24;;;;;;;3.75;3.08;;;;;;;;;;5093574;28;20444;-60
2022/12/07 08:01:50;;;;;;;4.22;3.33;;;;;;;;;;5092036;28;20042;-60
2022/12/07 08:04:15;;;;;;;4.18;3.03;;;;;;;;;;5092102;28;20130;-59
2022/12/07 08:06:42;;;;;;;4.50;3.15;;;;;;;;;;5091718;28;20703;-60
2022/12/07 08:09:08;;;;;;;4.35;2.95;;;;;;;;;;5091872;28;20032;-58
2022/12/07 08:11:34;;;;;;;4.57;2.85;;;;;;;;;;5091610;28;20380;-59
2022/12/07 08:14:00;;;;;;;4.85;2.92;;;;;;;;;;5091669;28;20032;-59
2022/12/07 08:16:25;;;;;;;3.42;2.75;;;;;;;;;;5091634;28;20027;-60
2022/12/07 08:18:51;;;;;;;3.40;2.78;;;;;;;;;;5102595;28;20027;-60
2022/12/07 08:21:16;;;;;;;3.00;2.65;;;;;;;;;;5111596;28;20359;-59
2022/12/07 08:23:42;;;;;;;5.00;3.13;;;;;;;;;;5109490;28;20360;-60
2022/12/07 08:26:14;;;;;;;4.53;3.00;;;;;;;;;;5111382;28;20027;-60
2022/12/07 08:28:40;;;;;;;3.60;2.90;;;;;;;;;;5112139;28;20418;-60
2022/12/07 08:31:08;;;;;;;4.50;2.88;;;;;;;;;;5110097;28;20146;-59
2022/12/07 08:33:35;;;;;;;3.95;3.10;;;;;;;;;;5091363;28;20020;-60
2022/12/07 08:36:06;;;;;;;2.97;2.67;;;;;;;;;;5091133;28;20036;-59
2022/12/07 08:38:32;;;;;;;3.70;2.75;;;;;;;;;;5090892;28;20027;-59
2022/12/07 08:40:58;;;;;;;4.50;2.75;;;;;;;;;;5093572;28;20489;-59
2022/12/07 08:43:24;;;;;;;3.97;3.10;;;;;;;;;;5099623;28;20111;-60
2022/12/07 08:46:13;;;;;;;4.22;2.70;;;;;;;;;;5109324;28;20180;-60
2022/12/07 08:48:45;;;;;;;3.42;2.85;;;;;;;;;;5111447;28;20419;-60
2022/12/07 08:51:11;;;;;;;4.70;2.88;;;;;;;;;;5104711;28;20065;-59
2022/12/07 08:53:38;;;;;;;3.58;2.90;;;;;;;;;;5091996;28;20106;-59
2022/12/07 08:56:05;;;;;;;3.75;2.92;;;;;;;;;;5110558;28;20027;-60
2022/12/07 08:58:32;;;;;;;3.47;2.83;;;;;;;;;;5111652;28;20035;-60
2022/12/07 09:00:58;;;;;;;3.22;2.80;;;;;;;;;;5111183;28;20035;-60
2022/12/07 09:03:23;;;;;;;3.55;2.55;;;;;;;;;;5111271;28;20031;-59
2022/12/07 09:05:49;;;;;;;3.28;2.97;;;;;;;;;;5101362;28;20034;-59
2022/12/07 09:08:15;;;;;;;6.30;2.95;;;;;;;;;;5104603;28;20036;-59
2022/12/07 09:10:41;;;;;;;3.35;2.60;;;;;;;;;;5110868;28;20028;-60
2022/12/07 09:13:06;;;;;;;3.92;2.85;;;;;;;;;;5105042;28;20030;-59
2022/12/07 09:15:32;;;;;;;4.38;2.80;;;;;;;;;;5111770;28;20378;-58
2022/12/07 09:17:57;;;;;;;5.60;3.35;;;;;;;;;;5110027;28;20027;-59
2022/12/07 09:20:23;;;;;;;3.53;2.75;;;;;;;;;;5106368;28;20035;-59
2022/12/07 09:22:49;;;;;;;4.50;3.15;;;;;;;;;;5107073;28;20032;-58
2022/12/07 09:25:16;;;;;;;2.80;2.60;;;;;;;;;;5109987;28;20479;-59
2022/12/07 09:27:42;;;;;;;3.15;2.80;;;;;;;;;;5111286;28;20067;-59
2022/12/07 09:30:08;;;;;;;3.67;2.90;;;;;;;;;;5111240;28;20059;-59
2022/12/07 09:32:33;;;;;;;4.32;2.95;;;;;;;;;;5111411;28;20536;-58
2022/12/07 09:34:59;;;;;;;3.50;2.90;;;;;;;;;;5111208;28;20031;-59
2022/12/07 09:37:25;;;;;;;4.45;3.05;;;;;;;;;;5111027;28;20031;-59
2022/12/07 09:39:51;;;;;;;5.53;3.30;;;;;;;;;;5111107;28;20823;-59
2022/12/07 09:42:32;;;;;;;3.38;2.97;;;;;;;;;;5109257;28;20038;-59
2022/12/07 09:44:58;;;;;;;5.97;2.70;;;;;;;;;;5109850;28;20031;-59
2022/12/07 09:47:24;;;;;;;3.85;3.10;;;;;;;;;;5109620;28;20448;-59
2022/12/07 09:49:50;;;;;;;3.38;3.08;;;;;;;;;;5111093;28;20077;-59
2022/12/07 09:52:24;;;;;;;3.08;2.72;;;;;;;;;;5111675;28;20034;-59
2022/12/07 09:54:51;;;;;;;4.13;3.13;;;;;;;;;;5115598;28;20020;-59
2022/12/07 09:57:17;;;;;;;2.67;2.47;;;;;;;;;;5115538;28;20031;-59
2022/12/07 09:59:43;;;;;;;5.38;3.17;;;;;;;;;;5113472;28;20085;-58
2022/12/07 10:02:36;;;;;;;3.17;2.60;;;;;;;;;;5115389;28;20474;-59
2022/12/07 10:05:07;;;;;;;3.65;2.40;;;;;;;;;;5115484;28;20509;-59
2022/12/07 10:07:33;;;;;;;3.38;2.72;;;;;;;;;;5114852;28;20027;-59
2022/12/07 10:09:58;;;;;;;3.13;2.83;;;;;;;;;;5114739;28;20024;-59
2022/12/07 10:12:24;;;;;;;2.97;2.55;;;;;;;;;;5114438;28;20020;-58
2022/12/07 10:15:02;;;;;;;4.75;2.80;;;;;;;;;;5111708;28;20037;-58
2022/12/07 10:17:35;;;;;;;3.08;2.70;;;;;;;;;;5113379;28;20119;-59
2022/12/07 10:20:16;;;;;;;3.10;2.80;;;;;;;;;;5113589;27;20019;-59
2022/12/07 10:22:54;;;;;;;3.40;2.70;;;;;;;;;;5113280;28;20177;-58
2022/12/07 10:25:21;;;;;;;4.18;2.70;;;;;;;;;;5114017;28;20031;-58
2022/12/07 10:28:14;;;;;;;4.40;2.90;;;;;;;;;;5114043;28;20480;-58
2022/12/07 10:30:47;;;;;;;3.05;2.65;;;;;;;;;;5112108;28;20165;-58
2022/12/07 10:33:46;;;;;;;3.35;2.65;;;;;;;;;;5114854;28;20028;-58
2022/12/07 10:36:19;;;;;;;3.50;2.90;;;;;;;;;;5114842;28;20019;-58
2022/12/07 10:38:51;;;;;;;3.20;2.70;;;;;;;;;;5114649;27;20110;-58
2022/12/07 10:41:18;;;;;;;4.32;2.80;;;;;;;;;;5104206;28;20612;-58
2022/12/07 10:43:53;;;;;;;4.43;2.67;;;;;;;;;;5113689;28;20088;-58
2022/12/07 10:46:34;;;;;;;3.30;2.70;;;;;;;;;;5114419;28;20047;-58
2022/12/07 10:49:35;;;;;;;3.78;2.60;;;;;;;;;;5111532;28;20019;-58
2022/12/07 10:52:06;;;;;;;;;;;;;;;;;;5090909;28;20040;-58
2022/12/07 10:54:37;;;;;;;3.35;2.72;;;;;;;;;;5093732;28;19919;-58
2022/12/07 10:57:21;;;;;;;3.50;2.67;;;;;;;;;;5109763;28;20028;-58
2022/12/07 10:59:58;;;;;;;3.10;2.55;;;;;;;;;;5112542;28;20039;-58
2022/12/07 11:02:45;;;;;;;3.80;2.83;;;;;;;;;;5114252;28;20496;-58
2022/12/07 11:05:17;;;;;;;2.72;2.38;;;;;;;;;;5109104;28;20492;-58
2022/12/07 11:08:02;;;;;;;2.75;2.50;;;;;;;;;;5114001;28;20118;-59
2022/12/07 11:10:39;;;;;;;3.95;2.60;;;;;;;;;;5113508;28;20057;-60
2022/12/07 11:13:10;;;;;;;2.97;2.60;;;;;;;;;;5114098;28;20073;-60
2022/12/07 11:16:17;;;;;;;2.92;2.40;;;;;;;;;;5113629;28;20059;-60
2022/12/07 11:18:55;;;;;;;3.20;2.85;;;;;;;;;;5110384;28;20035;-60
2022/12/07 11:21:31;;;;;;;3.15;2.53;;;;;;;;;;5113549;28;20040;-60
2022/12/07 11:24:00;;;;;;;3.95;2.95;;;;;;;;;;5113772;28;20063;-60
2022/12/07 11:26:38;;;;;;;3.17;2.70;;;;;;;;;;5113478;28;20127;-60
2022/12/07 11:29:07;;;;;;;2.95;2.65;;;;;;;;;;5113579;28;20077;-59
2022/12/07 11:31:51;;;;;;;3.15;2.58;;;;;;;;;;5113296;28;20027;-59
2022/12/07 11:34:19;;;;;;;3.95;2.50;;;;;;;;;;5113461;28;20028;-58
2022/12/07 11:36:49;;;;;;;2.92;2.58;;;;;;;;;;5113277;28;20423;-59
2022/12/07 11:39:20;;;;;;;3.58;2.70;;;;;;;;;;5113185;28;20576;-59
2022/12/07 11:41:49;;;;;;;2.97;2.40;;;;;;;;;;5113186;28;20031;-59
2022/12/07 11:44:26;;;;;;;3.28;2.97;;;;;;;;;;5113123;27;20036;-59
2022/12/07 11:47:11;;;;;;;2.95;2.50;;;;;;;;;;5112045;28;20047;-59
2022/12/07 11:49:51;;;;;;;2.78;2.55;;;;;;;;;;5113094;28;20034;-59
2022/12/07 11:52:41;;;;;;;3.35;2.80;;;;;;;;;;5113316;28;20156;-59
2022/12/07 11:55:21;;;;;;;3.10;2.43;;;;;;;;;;5112775;28;20028;-59
2022/12/07 11:57:51;;;;;;;3.05;2.50;;;;;;;;;;5112959;28;20031;-59
2022/12/07 12:00:18;;;;;;;2.90;2.60;;;;;;;;;;5113040;28;20031;-59
2022/12/07 12:02:57;;;;;;;2.85;2.55;;;;;;;;;;5113037;28;20050;-59
2022/12/07 12:05:25;;;;;;;3.60;2.95;;;;;;;;;;5112989;28;20032;-60
2022/12/07 12:08:00;;;;;;;3.95;2.80;;;;;;;;;;5109965;28;20131;-59
2022/12/07 12:11:13;;;;;;;4.25;2.58;;;;;;;;;;5112731;28;20032;-59
2022/12/07 12:14:18;;;;;;;2.80;2.53;;;;;;;;;;5109861;28;20517;-59
2022/12/07 12:17:05;;;;;;;2.58;2.38;;;;;;;;;;5107905;28;20089;-59
2022/12/07 12:19:40;;;;;;;3.40;2.58;;;;;;;;;;5110639;28;20491;-59
2022/12/07 12:22:15;;;;;;;4.10;2.50;;;;;;;;;;5111178;28;20106;-59
2022/12/07 12:24:42;;;;;;;2.78;2.33;;;;;;;;;;5110961;28;20032;-59
2022/12/07 12:27:28;;;;;;;3.85;2.60;;;;;;;;;;5110841;28;20035;-59
2022/12/07 12:30:24;;;;;;;3.28;2.80;;;;;;;;;;5111631;28;20098;-59
2022/12/07 12:32:50;;;;;;;3.03;2.63;;;;;;;;;;5109429;28;20046;-60
2022/12/07 12:35:27;;;;;;;3.42;2.70;;;;;;;;;;5111970;28;20126;-60
2022/12/07 12:37:54;;;;;;;3.20;2.45;;;;;;;;;;5110358;28;20028;-59
2022/12/07 12:40:20;;;;;;;3.03;2.58;;;;;;;;;;5112171;28;20379;-59
2022/12/07 12:42:56;;;;;;;3.08;2.72;;;;;;;;;;5111951;27;20024;-60
2022/12/07 12:45:22;;;;;;;5.45;2.83;;;;;;;;;;5111917;28;20504;-60
2022/12/07 12:47:58;;;;;;;2.67;2.33;;;;;;;;;;5111610;28;20047;-60
2022/12/07 12:50:30;;;;;;;3.35;2.60;;;;;;;;;;5111938;28;20059;-60
2022/12/07 12:53:05;;;;;;;3.10;2.50;;;;;;;;;;5111755;28;20020;-60
2022/12/07 12:56:13;;;;;;;3.20;2.42;;;;;;;;;;5111742;28;20024;-60
2022/12/07 12:58:41;;;;;;;2.75;2.38;;;;;;;;;;5111908;28;20035;-60
2022/12/07 13:01:42;;;;;;;3.30;2.42;;;;;;;;;;5112100;28;20035;-60
2022/12/07 13:04:24;;;;;;;2.38;2.17;;;;;;;;;;5088701;28;20032;-60
2022/12/07 13:06:50;;;;;;;3.08;2.35;;;;;;;;;;5109760;28;20047;-60
2022/12/07 13:09:34;;;;;;;2.80;2.50;;;;;;;;;;5111540;28;20024;-60
2022/12/07 13:12:14;;;;;;;3.60;2.33;;;;;;;;;;5111602;28;20076;-60
2022/12/07 13:14:42;;;;;;;2.75;2.55;;;;;;;;;;5111445;28;20019;-60
2022/12/07 13:17:32;;;;;;;2.72;2.20;;;;;;;;;;5111570;28;20038;-60
2022/12/07 13:20:04;;;;;;;3.58;2.60;;;;;;;;;;5111262;28;20115;-60
2022/12/07 13:22:30;;;;;;;2.63;2.40;;;;;;;;;;5111580;28;20110;-60
2022/12/07 13:25:19;;;;;;;2.88;2.60;;;;;;;;;;5111475;28;20123;-60
2022/12/07 13:27:54;;;;;;;2.77;2.50;;;;;;;;;;5111190;28;20089;-60
2022/12/07 13:30:20;;;;;;;2.92;2.58;;;;;;;;;;5111464;28;20232;-60
2022/12/07 13:32:57;;;;;;;2.55;2.35;;;;;;;;;;5111535;28;20106;-60
2022/12/07 13:35:43;;;;;;;2.45;2.25;;;;;;;;;;5111469;28;20019;-60
2022/12/07 13:38:29;;;;;;;2.45;2.22;;;;;;;;;;5108154;28;20114;-60
2022/12/07 13:41:04;;;;;;;3.35;2.60;;;;;;;;;;5108538;28;20043;-60
2022/12/07 13:43:29;;;;;;;2.67;2.38;;;;;;;;;;5108419;28;20024;-60
2022/12/07 13:46:00;;;;;;;3.25;2.42;;;;;;;;;;5108055;28;20062;-60
2022/12/07 13:48:32;;;;;;;3.72;3.00;;;;;;;;;;5108172;28;20055;-60
2022/12/07 13:51:00;;;;;;;3.08;2.78;;;;;;;;;;5108674;28;20043;-60
2022/12/07 13:53:30;;;;;;;3.13;2.65;;;;;;;;;;5108131;28;20418;-60
2022/12/07 13:55:59;;;;;;;2.63;2.10;;;;;;;;;;5108346;28;20081;-59
2022/12/07 13:58:26;;;;;;;2.78;2.53;;;;;;;;;;5108292;28;20048;-60
2022/12/07 14:00:52;;;;;;;3.05;2.60;;;;;;;;;;5108659;28;20039;-60
2022/12/07 14:03:17;;;;;;;3.67;2.55;;;;;;;;;;5108189;28;20043;-60
2022/12/07 14:05:44;;;;;;;4.05;2.53;;;;;;;;;;5108398;28;20494;-59
2022/12/07 14:08:10;;;;;;;3.25;2.63;;;;;;;;;;5108419;28;20036;-60
2022/12/07 14:10:42;;;;;;;2.63;2.40;;;;;;;;;;5110907;28;20072;-59
2022/12/07 14:13:40;;;;;;;3.70;2.70;;;;;;;;;;5109539;28;20119;-59
2022/12/07 14:16:21;;;;;;;3.33;2.33;;;;;;;;;;5110704;28;20032;-60
2022/12/07 14:18:47;;;;;;;4.47;2.90;;;;;;;;;;5110803;28;20027;-60
2022/12/07 14:21:12;;;;;;;2.72;2.47;;;;;;;;;;5109701;28;20431;-60
2022/12/07 14:23:39;;;;;;;2.70;2.50;;;;;;;;;;5110648;28;20039;-60
2022/12/07 14:26:22;;;;;;;3.38;2.70;;;;;;;;;;5110676;28;20111;-59
2022/12/07 14:28:48;;;;;;;2.53;2.33;;;;;;;;;;5109446;28;20028;-60
2022/12/07 14:31:21;;;;;;;3.53;2.80;;;;;;;;;;5102646;28;20024;-60
2022/12/07 14:33:46;;;;;;;3.08;2.78;;;;;;;;;;5090393;28;20036;-60
2022/12/07 14:36:13;;;;;;;2.88;2.47;;;;;;;;;;5110362;28;20056;-60
2022/12/07 14:38:39;;;;;;;2.90;2.60;;;;;;;;;;5110871;28;20031;-60
2022/12/07 14:43:57;;;;;;;4.72;3.00;;;;;;;;;;5113115;28;20034;-59
2022/12/07 14:46:25;;;;;;;2.58;2.38;;;;;;;;;;5113439;28;20048;-60
2022/12/07 14:48:50;;;;;;;2.90;2.58;;;;;;;;;;5099528;28;20032;-60
2022/12/07 14:51:16;;;;;;;3.72;2.90;;;;;;;;;;5093938;28;20035;-59
2022/12/07 14:53:46;;;;;;;4.18;2.72;;;;;;;;;;5094107;28;20032;-60
2022/12/07 14:56:12;;;;;;;;;;;;;;;;;;5099743;28;20044;-60
2022/12/07 14:58:37;;;;;;;2.92;2.58;;;;;;;;;;5113500;28;19915;-60
2022/12/07 15:01:03;;;;;;;3.42;2.40;;;;;;;;;;5114480;28;20027;-59
2022/12/07 15:03:29;;;;;;;4.43;2.70;;;;;;;;;;5113961;28;20027;-60
2022/12/07 15:05:55;;;;;;;4.45;2.72;;;;;;;;;;5110072;28;20076;-61
2022/12/07 15:08:20;;;;;;;2.88;2.60;;;;;;;;;;5113955;28;20437;-60